Terminal Aerodrome Forecast
Issued by NWS Wilmington, OH

Home | Current Version | Previous Version | Text Only | Print | Product List | Glossary On
Versions: 1 2 3 4 5 6 7 8 9 10 11 12 13 14 15 16 17
791
FTUS41 KILN 241720
TAFDAY
TAF
KDAY 241720Z 2418/2518 20012G20KT P6SM FEW250
     FM242200 20012KT P6SM SCT250
     FM250300 21012KT P6SM SCT230 WS020/22045KT
     FM250900 23012KT P6SM BKN110
     FM251200 26010KT P6SM BKN045
     FM251500 29011KT P6SM BKN020=

USA.gov is the U.S. government's official web portal to all federal, state and local government web resources and services.